sensor_id;sensor_type;location;lat;lon;timestamp;P1;durP1;ratioP1;P2;durP2;ratioP2
7519;SDS011;3801;48.876;10.184;2023-04-15T00:01:11;5.20;;;3.30;;
7519;SDS011;3801;48.876;10.184;2023-04-15T00:06:19;4.47;;;3.50;;
7519;SDS011;3801;48.876;10.184;2023-04-15T00:11:24;5.37;;;3.60;;
7519;SDS011;3801;48.876;10.184;2023-04-15T00:16:28;5.53;;;3.77;;
7519;SDS011;3801;48.876;10.184;2023-04-15T00:21:31;5.73;;;4.07;;
7519;SDS011;3801;48.876;10.184;2023-04-15T00:26:36;5.27;;;4.13;;
7519;SDS011;3801;48.876;10.184;2023-04-15T00:31:39;7.70;;;4.60;;
7519;SDS011;3801;48.876;10.184;2023-04-15T00:36:43;6.23;;;4.57;;
7519;SDS011;3801;48.876;10.184;2023-04-15T00:41:48;8.73;;;6.33;;
7519;SDS011;3801;48.876;10.184;2023-04-15T00:46:52;9.97;;;5.70;;
7519;SDS011;3801;48.876;10.184;2023-04-15T00:51:56;9.50;;;5.97;;
7519;SDS011;3801;48.876;10.184;2023-04-15T00:57:01;6.03;;;4.67;;
7519;SDS011;3801;48.876;10.184;2023-04-15T01:02:04;6.20;;;4.60;;
7519;SDS011;3801;48.876;10.184;2023-04-15T01:07:08;6.60;;;5.33;;
7519;SDS011;3801;48.876;10.184;2023-04-15T01:12:13;7.60;;;5.30;;
7519;SDS011;3801;48.876;10.184;2023-04-15T01:17:17;7.30;;;5.33;;
7519;SDS011;3801;48.876;10.184;2023-04-15T01:22:20;7.03;;;5.43;;
7519;SDS011;3801;48.876;10.184;2023-04-15T01:27:26;6.97;;;5.50;;
7519;SDS011;3801;48.876;10.184;2023-04-15T01:32:29;10.60;;;6.40;;
7519;SDS011;3801;48.876;10.184;2023-04-15T01:37:33;9.03;;;5.53;;
7519;SDS011;3801;48.876;10.184;2023-04-15T01:42:38;8.67;;;5.70;;
7519;SDS011;3801;48.876;10.184;2023-04-15T01:47:42;8.47;;;5.77;;
7519;SDS011;3801;48.876;10.184;2023-04-15T01:52:46;8.40;;;5.60;;
7519;SDS011;3801;48.876;10.184;2023-04-15T01:57:50;10.47;;;6.00;;
7519;SDS011;3801;48.876;10.184;2023-04-15T02:02:55;8.40;;;5.20;;
7519;SDS011;3801;48.876;10.184;2023-04-15T02:07:59;8.03;;;5.37;;
7519;SDS011;3801;48.876;10.184;2023-04-15T02:13:04;8.17;;;6.93;;
7519;SDS011;3801;48.876;10.184;2023-04-15T02:18:08;7.80;;;6.03;;
7519;SDS011;3801;48.876;10.184;2023-04-15T02:23:14;7.73;;;6.00;;
7519;SDS011;3801;48.876;10.184;2023-04-15T02:28:19;7.83;;;4.90;;
7519;SDS011;3801;48.876;10.184;2023-04-15T02:33:22;11.37;;;5.33;;
7519;SDS011;3801;48.876;10.184;2023-04-15T02:38:26;7.37;;;5.07;;
7519;SDS011;3801;48.876;10.184;2023-04-15T02:43:31;8.47;;;5.00;;
7519;SDS011;3801;48.876;10.184;2023-04-15T02:48:34;9.63;;;5.77;;
7519;SDS011;3801;48.876;10.184;2023-04-15T02:53:38;7.10;;;5.27;;
7519;SDS011;3801;48.876;10.184;2023-04-15T02:58:43;9.03;;;6.27;;
7519;SDS011;3801;48.876;10.184;2023-04-15T03:03:47;6.87;;;5.33;;
7519;SDS011;3801;48.876;10.184;2023-04-15T03:08:51;8.33;;;5.30;;
7519;SDS011;3801;48.876;10.184;2023-04-15T03:13:56;9.17;;;5.10;;
7519;SDS011;3801;48.876;10.184;2023-04-15T03:19:06;6.83;;;4.70;;
7519;SDS011;3801;48.876;10.184;2023-04-15T03:24:15;6.97;;;5.20;;
7519;SDS011;3801;48.876;10.184;2023-04-15T03:29:20;6.70;;;4.97;;
7519;SDS011;3801;48.876;10.184;2023-04-15T03:34:23;6.97;;;4.67;;
7519;SDS011;3801;48.876;10.184;2023-04-15T03:39:27;8.17;;;5.40;;
7519;SDS011;3801;48.876;10.184;2023-04-15T03:44:32;7.23;;;4.80;;
7519;SDS011;3801;48.876;10.184;2023-04-15T03:49:36;8.50;;;4.93;;
7519;SDS011;3801;48.876;10.184;2023-04-15T03:54:39;5.93;;;4.50;;
7519;SDS011;3801;48.876;10.184;2023-04-15T03:59:44;6.37;;;5.07;;
7519;SDS011;3801;48.876;10.184;2023-04-15T04:04:48;7.17;;;5.23;;
7519;SDS011;3801;48.876;10.184;2023-04-15T04:09:51;6.37;;;4.83;;
7519;SDS011;3801;48.876;10.184;2023-04-15T04:14:56;8.17;;;5.30;;
7519;SDS011;3801;48.876;10.184;2023-04-15T04:19:59;7.47;;;5.27;;
7519;SDS011;3801;48.876;10.184;2023-04-15T04:25:03;7.47;;;5.03;;
7519;SDS011;3801;48.876;10.184;2023-04-15T04:30:08;6.90;;;5.07;;
7519;SDS011;3801;48.876;10.184;2023-04-15T04:35:11;7.23;;;4.93;;
7519;SDS011;3801;48.876;10.184;2023-04-15T04:40:15;10.50;;;6.20;;
7519;SDS011;3801;48.876;10.184;2023-04-15T04:45:19;8.17;;;6.57;;
7519;SDS011;3801;48.876;10.184;2023-04-15T04:50:23;11.97;;;7.87;;
7519;SDS011;3801;48.876;10.184;2023-04-15T04:55:27;7.50;;;5.87;;
7519;SDS011;3801;48.876;10.184;2023-04-15T05:00:31;13.87;;;8.70;;
7519;SDS011;3801;48.876;10.184;2023-04-15T05:05:35;7.90;;;5.73;;
7519;SDS011;3801;48.876;10.184;2023-04-15T05:10:40;7.70;;;5.83;;
7519;SDS011;3801;48.876;10.184;2023-04-15T05:15:45;7.67;;;5.67;;
7519;SDS011;3801;48.876;10.184;2023-04-15T05:20:48;9.53;;;4.80;;
7519;SDS011;3801;48.876;10.184;2023-04-15T05:25:52;7.13;;;5.17;;
7519;SDS011;3801;48.876;10.184;2023-04-15T05:30:57;6.83;;;4.83;;
7519;SDS011;3801;48.876;10.184;2023-04-15T05:36:00;7.23;;;5.03;;
7519;SDS011;3801;48.876;10.184;2023-04-15T05:41:03;6.77;;;5.33;;
7519;SDS011;3801;48.876;10.184;2023-04-15T05:46:09;10.97;;;5.27;;
7519;SDS011;3801;48.876;10.184;2023-04-15T05:51:12;6.17;;;5.43;;
7519;SDS011;3801;48.876;10.184;2023-04-15T05:56:15;10.93;;;6.37;;
7519;SDS011;3801;48.876;10.184;2023-04-15T06:01:20;8.63;;;6.67;;
7519;SDS011;3801;48.876;10.184;2023-04-15T06:06:23;7.87;;;5.60;;
7519;SDS011;3801;48.876;10.184;2023-04-15T06:11:27;13.30;;;6.77;;
7519;SDS011;3801;48.876;10.184;2023-04-15T06:16:32;5.07;;;4.27;;
7519;SDS011;3801;48.876;10.184;2023-04-15T06:21:37;5.47;;;4.37;;
7519;SDS011;3801;48.876;10.184;2023-04-15T06:26:41;5.97;;;3.40;;
7519;SDS011;3801;48.876;10.184;2023-04-15T06:31:45;4.67;;;2.93;;
7519;SDS011;3801;48.876;10.184;2023-04-15T06:36:49;3.63;;;2.70;;
7519;SDS011;3801;48.876;10.184;2023-04-15T06:41:52;4.77;;;2.40;;
7519;SDS011;3801;48.876;10.184;2023-04-15T06:46:57;4.57;;;3.10;;
7519;SDS011;3801;48.876;10.184;2023-04-15T06:52:01;5.97;;;2.80;;
7519;SDS011;3801;48.876;10.184;2023-04-15T06:57:06;7.40;;;3.03;;
7519;SDS011;3801;48.876;10.184;2023-04-15T07:02:12;3.63;;;2.60;;
7519;SDS011;3801;48.876;10.184;2023-04-15T07:07:15;5.70;;;3.53;;
7519;SDS011;3801;48.876;10.184;2023-04-15T07:12:19;3.10;;;2.77;;
7519;SDS011;3801;48.876;10.184;2023-04-15T07:17:24;5.00;;;3.03;;
7519;SDS011;3801;48.876;10.184;2023-04-15T07:22:27;4.00;;;2.63;;
7519;SDS011;3801;48.876;10.184;2023-04-15T07:27:30;2.97;;;2.67;;
7519;SDS011;3801;48.876;10.184;2023-04-15T07:32:35;3.73;;;2.43;;
7519;SDS011;3801;48.876;10.184;2023-04-15T07:37:39;5.13;;;2.60;;
7519;SDS011;3801;48.876;10.184;2023-04-15T07:42:44;5.57;;;2.83;;
7519;SDS011;3801;48.876;10.184;2023-04-15T07:47:49;4.67;;;3.00;;
7519;SDS011;3801;48.876;10.184;2023-04-15T07:52:52;5.93;;;2.90;;
7519;SDS011;3801;48.876;10.184;2023-04-15T07:57:56;4.07;;;2.57;;
7519;SDS011;3801;48.876;10.184;2023-04-15T08:03:00;3.90;;;2.80;;
7519;SDS011;3801;48.876;10.184;2023-04-15T08:08:04;6.77;;;3.27;;
7519;SDS011;3801;48.876;10.184;2023-04-15T08:13:08;5.97;;;3.47;;
7519;SDS011;3801;48.876;10.184;2023-04-15T08:18:12;3.50;;;2.93;;
7519;SDS011;3801;48.876;10.184;2023-04-15T08:23:16;7.83;;;3.07;;
7519;SDS011;3801;48.876;10.184;2023-04-15T08:28:19;4.80;;;2.77;;
7519;SDS011;3801;48.876;10.184;2023-04-15T08:33:24;3.20;;;2.60;;
7519;SDS011;3801;48.876;10.184;2023-04-15T08:38:27;5.17;;;3.03;;
7519;SDS011;3801;48.876;10.184;2023-04-15T08:43:33;5.23;;;3.30;;
7519;SDS011;3801;48.876;10.184;2023-04-15T08:48:38;6.00;;;3.73;;
7519;SDS011;3801;48.876;10.184;2023-04-15T08:53:42;6.23;;;3.23;;
7519;SDS011;3801;48.876;10.184;2023-04-15T08:58:47;7.70;;;3.50;;
7519;SDS011;3801;48.876;10.184;2023-04-15T09:03:52;5.50;;;2.90;;
7519;SDS011;3801;48.876;10.184;2023-04-15T09:08:56;5.73;;;2.97;;
7519;SDS011;3801;48.876;10.184;2023-04-15T09:14:00;5.20;;;3.47;;
7519;SDS011;3801;48.876;10.184;2023-04-15T09:19:13;6.47;;;4.23;;
7519;SDS011;3801;48.876;10.184;2023-04-15T09:24:23;9.30;;;4.10;;
7519;SDS011;3801;48.876;10.184;2023-04-15T09:29:26;7.37;;;4.00;;
7519;SDS011;3801;48.876;10.184;2023-04-15T09:34:35;5.97;;;3.63;;
7519;SDS011;3801;48.876;10.184;2023-04-15T09:39:48;4.27;;;3.50;;
7519;SDS011;3801;48.876;10.184;2023-04-15T09:44:52;6.30;;;3.43;;
7519;SDS011;3801;48.876;10.184;2023-04-15T09:49:56;7.83;;;3.70;;
7519;SDS011;3801;48.876;10.184;2023-04-15T09:55:00;4.13;;;3.53;;
7519;SDS011;3801;48.876;10.184;2023-04-15T10:00:03;6.20;;;3.93;;
7519;SDS011;3801;48.876;10.184;2023-04-15T10:05:13;4.83;;;3.27;;
7519;SDS011;3801;48.876;10.184;2023-04-15T10:10:16;6.20;;;4.77;;
7519;SDS011;3801;48.876;10.184;2023-04-15T10:15:20;8.80;;;6.37;;
7519;SDS011;3801;48.876;10.184;2023-04-15T10:20:25;7.30;;;5.23;;
7519;SDS011;3801;48.876;10.184;2023-04-15T10:25:29;7.73;;;5.17;;
7519;SDS011;3801;48.876;10.184;2023-04-15T10:30:33;6.00;;;4.73;;
7519;SDS011;3801;48.876;10.184;2023-04-15T10:35:38;5.80;;;4.70;;
7519;SDS011;3801;48.876;10.184;2023-04-15T10:40:41;6.27;;;4.47;;
7519;SDS011;3801;48.876;10.184;2023-04-15T10:45:46;12.90;;;4.53;;
7519;SDS011;3801;48.876;10.184;2023-04-15T10:50:56;6.60;;;4.80;;
7519;SDS011;3801;48.876;10.184;2023-04-15T10:55:59;8.70;;;4.43;;
7519;SDS011;3801;48.876;10.184;2023-04-15T11:01:03;7.47;;;4.40;;
7519;SDS011;3801;48.876;10.184;2023-04-15T11:06:07;9.43;;;4.23;;
7519;SDS011;3801;48.876;10.184;2023-04-15T11:11:11;5.87;;;4.30;;
7519;SDS011;3801;48.876;10.184;2023-04-15T11:16:15;5.83;;;4.43;;
7519;SDS011;3801;48.876;10.184;2023-04-15T11:21:19;6.50;;;3.70;;
7519;SDS011;3801;48.876;10.184;2023-04-15T11:26:26;4.40;;;3.90;;
7519;SDS011;3801;48.876;10.184;2023-04-15T11:31:29;8.10;;;4.10;;
7519;SDS011;3801;48.876;10.184;2023-04-15T11:36:36;5.00;;;4.13;;
7519;SDS011;3801;48.876;10.184;2023-04-15T11:41:40;6.10;;;3.83;;
7519;SDS011;3801;48.876;10.184;2023-04-15T11:46:44;7.40;;;5.33;;
7519;SDS011;3801;48.876;10.184;2023-04-15T11:51:49;8.47;;;5.10;;
7519;SDS011;3801;48.876;10.184;2023-04-15T11:56:52;8.57;;;4.80;;
7519;SDS011;3801;48.876;10.184;2023-04-15T12:01:55;10.87;;;3.77;;
7519;SDS011;3801;48.876;10.184;2023-04-15T12:07:04;5.17;;;3.57;;
7519;SDS011;3801;48.876;10.184;2023-04-15T12:12:08;3.67;;;2.47;;
7519;SDS011;3801;48.876;10.184;2023-04-15T12:17:13;4.37;;;3.00;;
7519;SDS011;3801;48.876;10.184;2023-04-15T12:22:17;3.83;;;3.00;;
7519;SDS011;3801;48.876;10.184;2023-04-15T12:27:24;4.77;;;2.97;;
7519;SDS011;3801;48.876;10.184;2023-04-15T12:32:33;4.50;;;3.33;;
7519;SDS011;3801;48.876;10.184;2023-04-15T12:37:38;8.73;;;5.70;;
7519;SDS011;3801;48.876;10.184;2023-04-15T12:42:41;5.13;;;3.10;;
7519;SDS011;3801;48.876;10.184;2023-04-15T12:47:45;4.30;;;3.47;;
7519;SDS011;3801;48.876;10.184;2023-04-15T12:52:50;2.33;;;1.70;;
7519;SDS011;3801;48.876;10.184;2023-04-15T12:58:02;4.10;;;2.30;;
7519;SDS011;3801;48.876;10.184;2023-04-15T13:03:05;2.97;;;1.63;;
7519;SDS011;3801;48.876;10.184;2023-04-15T13:08:11;3.27;;;1.60;;
7519;SDS011;3801;48.876;10.184;2023-04-15T13:13:15;3.73;;;2.77;;
7519;SDS011;3801;48.876;10.184;2023-04-15T13:18:18;5.53;;;4.17;;
7519;SDS011;3801;48.876;10.184;2023-04-15T13:23:23;5.73;;;2.90;;
7519;SDS011;3801;48.876;10.184;2023-04-15T13:28:27;4.07;;;2.90;;
7519;SDS011;3801;48.876;10.184;2023-04-15T13:33:30;5.37;;;3.30;;
7519;SDS011;3801;48.876;10.184;2023-04-15T13:38:35;5.80;;;3.67;;
7519;SDS011;3801;48.876;10.184;2023-04-15T13:43:38;3.00;;;2.67;;
7519;SDS011;3801;48.876;10.184;2023-04-15T13:48:42;3.57;;;2.33;;
7519;SDS011;3801;48.876;10.184;2023-04-15T13:53:46;3.93;;;2.90;;
7519;SDS011;3801;48.876;10.184;2023-04-15T13:58:50;5.33;;;3.40;;
7519;SDS011;3801;48.876;10.184;2023-04-15T14:03:55;5.17;;;3.00;;
7519;SDS011;3801;48.876;10.184;2023-04-15T14:09:00;3.37;;;2.87;;
7519;SDS011;3801;48.876;10.184;2023-04-15T14:14:04;4.93;;;2.77;;
7519;SDS011;3801;48.876;10.184;2023-04-15T14:19:08;5.03;;;3.27;;
7519;SDS011;3801;48.876;10.184;2023-04-15T14:24:12;4.63;;;2.00;;
7519;SDS011;3801;48.876;10.184;2023-04-15T14:29:16;4.93;;;1.90;;
7519;SDS011;3801;48.876;10.184;2023-04-15T14:34:19;3.40;;;2.43;;
7519;SDS011;3801;48.876;10.184;2023-04-15T14:39:27;9.97;;;5.13;;
7519;SDS011;3801;48.876;10.184;2023-04-15T14:44:30;4.77;;;1.87;;
7519;SDS011;3801;48.876;10.184;2023-04-15T14:49:34;3.70;;;1.90;;
7519;SDS011;3801;48.876;10.184;2023-04-15T14:54:39;2.20;;;2.00;;
7519;SDS011;3801;48.876;10.184;2023-04-15T14:59:45;3.27;;;2.60;;
7519;SDS011;3801;48.876;10.184;2023-04-15T15:04:48;3.43;;;1.80;;
7519;SDS011;3801;48.876;10.184;2023-04-15T15:09:53;2.57;;;1.80;;
7519;SDS011;3801;48.876;10.184;2023-04-15T15:14:57;1.97;;;1.83;;
7519;SDS011;3801;48.876;10.184;2023-04-15T15:20:02;2.03;;;1.83;;
7519;SDS011;3801;48.876;10.184;2023-04-15T15:25:15;3.03;;;1.67;;
7519;SDS011;3801;48.876;10.184;2023-04-15T15:30:18;1.43;;;1.33;;
7519;SDS011;3801;48.876;10.184;2023-04-15T15:35:22;1.90;;;1.57;;
7519;SDS011;3801;48.876;10.184;2023-04-15T15:40:28;2.10;;;1.40;;
7519;SDS011;3801;48.876;10.184;2023-04-15T15:45:32;1.90;;;1.70;;
7519;SDS011;3801;48.876;10.184;2023-04-15T15:50:35;3.73;;;2.60;;
7519;SDS011;3801;48.876;10.184;2023-04-15T15:55:40;4.67;;;3.23;;
7519;SDS011;3801;48.876;10.184;2023-04-15T16:00:44;7.40;;;4.20;;
7519;SDS011;3801;48.876;10.184;2023-04-15T16:05:48;4.20;;;2.50;;
7519;SDS011;3801;48.876;10.184;2023-04-15T16:10:53;1.70;;;1.60;;
7519;SDS011;3801;48.876;10.184;2023-04-15T16:15:56;1.90;;;1.80;;
7519;SDS011;3801;48.876;10.184;2023-04-15T16:20:59;1.53;;;1.43;;
7519;SDS011;3801;48.876;10.184;2023-04-15T16:26:04;1.90;;;1.70;;
7519;SDS011;3801;48.876;10.184;2023-04-15T16:31:09;1.40;;;1.30;;
7519;SDS011;3801;48.876;10.184;2023-04-15T16:36:12;1.57;;;1.43;;
7519;SDS011;3801;48.876;10.184;2023-04-15T16:41:18;3.57;;;2.50;;
7519;SDS011;3801;48.876;10.184;2023-04-15T16:46:22;5.33;;;2.77;;
7519;SDS011;3801;48.876;10.184;2023-04-15T16:51:26;2.67;;;1.83;;
7519;SDS011;3801;48.876;10.184;2023-04-15T16:56:32;2.10;;;1.90;;
7519;SDS011;3801;48.876;10.184;2023-04-15T17:01:35;5.27;;;3.87;;
7519;SDS011;3801;48.876;10.184;2023-04-15T17:06:39;4.07;;;3.67;;
7519;SDS011;3801;48.876;10.184;2023-04-15T17:11:43;5.27;;;4.40;;
7519;SDS011;3801;48.876;10.184;2023-04-15T17:16:47;3.47;;;2.87;;
7519;SDS011;3801;48.876;10.184;2023-04-15T17:21:50;2.80;;;2.20;;
7519;SDS011;3801;48.876;10.184;2023-04-15T17:26:57;10.13;;;2.80;;
7519;SDS011;3801;48.876;10.184;2023-04-15T17:32:02;2.80;;;2.50;;
7519;SDS011;3801;48.876;10.184;2023-04-15T17:37:06;2.87;;;2.53;;
7519;SDS011;3801;48.876;10.184;2023-04-15T17:42:11;3.23;;;2.83;;
7519;SDS011;3801;48.876;10.184;2023-04-15T17:47:15;5.10;;;3.10;;
7519;SDS011;3801;48.876;10.184;2023-04-15T17:52:18;3.53;;;2.93;;
7519;SDS011;3801;48.876;10.184;2023-04-15T17:57:26;3.30;;;2.97;;
7519;SDS011;3801;48.876;10.184;2023-04-15T18:02:29;2.90;;;2.40;;
7519;SDS011;3801;48.876;10.184;2023-04-15T18:07:37;6.33;;;3.90;;
7519;SDS011;3801;48.876;10.184;2023-04-15T18:12:41;4.10;;;3.57;;
7519;SDS011;3801;48.876;10.184;2023-04-15T18:17:46;5.30;;;3.80;;
7519;SDS011;3801;48.876;10.184;2023-04-15T18:22:55;3.17;;;2.87;;
7519;SDS011;3801;48.876;10.184;2023-04-15T18:28:00;5.70;;;3.97;;
7519;SDS011;3801;48.876;10.184;2023-04-15T18:33:04;4.27;;;3.17;;
7519;SDS011;3801;48.876;10.184;2023-04-15T18:38:07;4.30;;;3.27;;
7519;SDS011;3801;48.876;10.184;2023-04-15T18:43:12;2.77;;;2.50;;
7519;SDS011;3801;48.876;10.184;2023-04-15T18:48:16;2.23;;;1.90;;
7519;SDS011;3801;48.876;10.184;2023-04-15T18:53:20;2.43;;;2.23;;
7519;SDS011;3801;48.876;10.184;2023-04-15T18:58:27;3.83;;;2.20;;
7519;SDS011;3801;48.876;10.184;2023-04-15T19:03:52;2.53;;;2.27;;
7519;SDS011;3801;48.876;10.184;2023-04-15T19:08:56;2.83;;;2.33;;
7519;SDS011;3801;48.876;10.184;2023-04-15T19:14:01;2.60;;;1.90;;
7519;SDS011;3801;48.876;10.184;2023-04-15T19:19:07;2.60;;;2.07;;
7519;SDS011;3801;48.876;10.184;2023-04-15T19:24:13;2.70;;;2.10;;
7519;SDS011;3801;48.876;10.184;2023-04-15T19:29:21;1.50;;;1.37;;
7519;SDS011;3801;48.876;10.184;2023-04-15T19:34:25;1.60;;;1.50;;
7519;SDS011;3801;48.876;10.184;2023-04-15T19:39:28;1.27;;;1.10;;
7519;SDS011;3801;48.876;10.184;2023-04-15T19:44:33;1.07;;;1.03;;
7519;SDS011;3801;48.876;10.184;2023-04-15T19:49:38;1.00;;;1.00;;
7519;SDS011;3801;48.876;10.184;2023-04-15T19:54:41;1.27;;;1.17;;
7519;SDS011;3801;48.876;10.184;2023-04-15T19:59:47;1.30;;;1.20;;
7519;SDS011;3801;48.876;10.184;2023-04-15T20:04:50;1.07;;;1.03;;
7519;SDS011;3801;48.876;10.184;2023-04-15T20:09:54;1.10;;;1.03;;
7519;SDS011;3801;48.876;10.184;2023-04-15T20:14:58;1.50;;;1.23;;
7519;SDS011;3801;48.876;10.184;2023-04-15T20:20:02;1.47;;;1.33;;
7519;SDS011;3801;48.876;10.184;2023-04-15T20:25:06;1.60;;;1.40;;
7519;SDS011;3801;48.876;10.184;2023-04-15T20:30:11;1.63;;;1.50;;
7519;SDS011;3801;48.876;10.184;2023-04-15T20:35:14;1.47;;;1.37;;
7519;SDS011;3801;48.876;10.184;2023-04-15T20:40:17;1.90;;;1.40;;
7519;SDS011;3801;48.876;10.184;2023-04-15T20:45:23;1.90;;;1.60;;
7519;SDS011;3801;48.876;10.184;2023-04-15T20:50:27;4.27;;;3.47;;
7519;SDS011;3801;48.876;10.184;2023-04-15T20:55:30;5.97;;;3.60;;
7519;SDS011;3801;48.876;10.184;2023-04-15T21:00:35;4.20;;;3.63;;
7519;SDS011;3801;48.876;10.184;2023-04-15T21:05:38;2.57;;;2.20;;
7519;SDS011;3801;48.876;10.184;2023-04-15T21:10:41;3.57;;;2.90;;
7519;SDS011;3801;48.876;10.184;2023-04-15T21:15:47;3.33;;;2.87;;
7519;SDS011;3801;48.876;10.184;2023-04-15T21:20:55;3.23;;;2.70;;
7519;SDS011;3801;48.876;10.184;2023-04-15T21:25:59;3.90;;;3.13;;
7519;SDS011;3801;48.876;10.184;2023-04-15T21:31:04;2.87;;;2.30;;
7519;SDS011;3801;48.876;10.184;2023-04-15T21:36:07;2.17;;;1.90;;
7519;SDS011;3801;48.876;10.184;2023-04-15T21:41:10;2.30;;;2.00;;
7519;SDS011;3801;48.876;10.184;2023-04-15T21:46:15;2.60;;;2.20;;
7519;SDS011;3801;48.876;10.184;2023-04-15T21:51:25;2.67;;;2.10;;
7519;SDS011;3801;48.876;10.184;2023-04-15T21:56:28;3.10;;;2.50;;
7519;SDS011;3801;48.876;10.184;2023-04-15T22:01:33;2.10;;;1.83;;
7519;SDS011;3801;48.876;10.184;2023-04-15T22:06:36;2.60;;;2.40;;
7519;SDS011;3801;48.876;10.184;2023-04-15T22:11:40;3.93;;;1.80;;
7519;SDS011;3801;48.876;10.184;2023-04-15T22:16:44;2.80;;;2.30;;
7519;SDS011;3801;48.876;10.184;2023-04-15T22:21:48;2.53;;;2.00;;
7519;SDS011;3801;48.876;10.184;2023-04-15T22:26:51;2.43;;;2.10;;
7519;SDS011;3801;48.876;10.184;2023-04-15T22:31:56;2.77;;;2.37;;
7519;SDS011;3801;48.876;10.184;2023-04-15T22:36:59;2.77;;;2.47;;
7519;SDS011;3801;48.876;10.184;2023-04-15T22:42:04;3.00;;;2.70;;
7519;SDS011;3801;48.876;10.184;2023-04-15T22:47:08;2.60;;;2.40;;
7519;SDS011;3801;48.876;10.184;2023-04-15T22:52:12;3.33;;;2.70;;
7519;SDS011;3801;48.876;10.184;2023-04-15T22:57:31;3.17;;;2.40;;
7519;SDS011;3801;48.876;10.184;2023-04-15T23:02:35;2.90;;;2.63;;
7519;SDS011;3801;48.876;10.184;2023-04-15T23:07:39;3.67;;;2.93;;
7519;SDS011;3801;48.876;10.184;2023-04-15T23:12:42;3.53;;;3.00;;
7519;SDS011;3801;48.876;10.184;2023-04-15T23:17:47;3.10;;;2.60;;
7519;SDS011;3801;48.876;10.184;2023-04-15T23:22:50;3.67;;;3.00;;
7519;SDS011;3801;48.876;10.184;2023-04-15T23:27:53;4.17;;;3.00;;
7519;SDS011;3801;48.876;10.184;2023-04-15T23:32:58;3.10;;;2.70;;
7519;SDS011;3801;48.876;10.184;2023-04-15T23:38:02;3.13;;;2.57;;
7519;SDS011;3801;48.876;10.184;2023-04-15T23:43:06;4.47;;;3.20;;
7519;SDS011;3801;48.876;10.184;2023-04-15T23:48:10;4.20;;;3.10;;
7519;SDS011;3801;48.876;10.184;2023-04-15T23:53:14;3.60;;;3.10;;
7519;SDS011;3801;48.876;10.184;2023-04-15T23:58:18;3.97;;;3.27;;
